Nestor — V2FB3 — position and weather

sailwx.info

Track history (hours):
 
Tides and Currents Weather Stations Pressure Air Temp Water Temp Dewpoint Dewpoint Depression Visibility Wind Speed Wind Dir Waves Ship Positions

Nestor

Last reported at 2015-Sep-01 11:33 UTC. Time now 2015-Sep-01 12:14 UTC.
Position N 38°45' E 009°46'.

Length 88 m; draft 5.6 m.

Type: Cargo ship. MMSI: 305620000.

Date/timePositionNaut miles runAvg speedWind from/ knotsBaromVisibWave heightAir tempDewpointWater temp
2015-Sep-01 11:33N 38°45' E 009°46'9 9.5
2015-Sep-01 10:33N 38°43' E 009°57'13 9.6
2015-Sep-01 09:10N 38°41' E 010°14'144 9.2
2015-Aug-31 17:26N 38°28' E 013°18'20 9.1
2015-Aug-31 15:16N 38°26' E 013°43'43 9.0
2015-Aug-31 10:33N 38°22' E 014°37'9 9.0
2015-Aug-31 09:32N 38°21' E 014°49'9 9.3
2015-Aug-31 08:32N 38°20' E 015°01'10 9.6
2015-Aug-31 07:27N 38°20' E 015°14'8 9.2
2015-Aug-31 06:33N 38°20' E 015°24'9 8.9
2015-Aug-31 05:33N 38°20' E 015°36'5 5.5
2015-Aug-31 04:33N 38°15' E 015°39'9 9.1
2015-Aug-31 03:34N 38°06' E 015°36'9 8.5
2015-Aug-31 02:32N 37°57' E 015°38'8 8.0
2015-Aug-31 01:34N 37°52' E 015°45'  
Track history (hours):
 
Tides and Currents Weather Stations Pressure Air Temp Water Temp Dewpoint Dewpoint Depression Visibility Wind Speed Wind Dir Waves Ship Positions

Nestor

Last reported at 2015-Sep-01 11:33 UTC. Time now 2015-Sep-01 12:14 UTC.
Position N 38°45' E 009°46'.

Length 88 m; draft 5.6 m.

Type: Cargo ship. MMSI: 305620000.

Date/timePositionNaut miles runAvg speedWind from/ knotsBaromVisibWave heightAir tempDewpointWater temp
2015-Sep-01 11:33N 38°45' E 009°46'9 9.5
2015-Sep-01 10:33N 38°43' E 009°57'13 9.6
2015-Sep-01 09:10N 38°41' E 010°14'144 9.2
2015-Aug-31 17:26N 38°28' E 013°18'20 9.1
2015-Aug-31 15:16N 38°26' E 013°43'43 9.0
2015-Aug-31 10:33N 38°22' E 014°37'9 9.0
2015-Aug-31 09:32N 38°21' E 014°49'9 9.3
2015-Aug-31 08:32N 38°20' E 015°01'10 9.6
2015-Aug-31 07:27N 38°20' E 015°14'8 9.2
2015-Aug-31 06:33N 38°20' E 015°24'9 8.9
2015-Aug-31 05:33N 38°20' E 015°36'5 5.5
2015-Aug-31 04:33N 38°15' E 015°39'9 9.1
2015-Aug-31 03:34N 38°06' E 015°36'9 8.5
2015-Aug-31 02:32N 37°57' E 015°38'8 8.0
2015-Aug-31 01:34N 37°52' E 015°45'  

Dump ship's entire track history